sensor_id;sensor_type;location;lat;lon;timestamp;P1;durP1;ratioP1;P2;durP2;ratioP2
10389;SDS011;5241;47.830;12.972;2022-07-22T00:02:16;23.13;;;21.03;;
10389;SDS011;5241;47.830;12.972;2022-07-22T00:04:41;23.07;;;20.90;;
10389;SDS011;5241;47.830;12.972;2022-07-22T00:07:07;24.43;;;22.03;;
10389;SDS011;5241;47.830;12.972;2022-07-22T00:09:33;22.73;;;20.43;;
10389;SDS011;5241;47.830;12.972;2022-07-22T00:11:59;22.00;;;20.00;;
10389;SDS011;5241;47.830;12.972;2022-07-22T00:14:24;23.43;;;21.30;;
10389;SDS011;5241;47.830;12.972;2022-07-22T00:16:50;21.57;;;19.47;;
10389;SDS011;5241;47.830;12.972;2022-07-22T00:19:16;21.90;;;19.77;;
10389;SDS011;5241;47.830;12.972;2022-07-22T00:21:42;21.97;;;19.93;;
10389;SDS011;5241;47.830;12.972;2022-07-22T00:24:07;22.77;;;20.70;;
10389;SDS011;5241;47.830;12.972;2022-07-22T00:26:33;23.17;;;21.10;;
10389;SDS011;5241;47.830;12.972;2022-07-22T00:28:59;22.93;;;20.83;;
10389;SDS011;5241;47.830;12.972;2022-07-22T00:31:24;23.80;;;21.33;;
10389;SDS011;5241;47.830;12.972;2022-07-22T00:33:50;25.20;;;22.80;;
10389;SDS011;5241;47.830;12.972;2022-07-22T00:36:15;24.93;;;22.43;;
10389;SDS011;5241;47.830;12.972;2022-07-22T00:38:41;23.53;;;21.23;;
10389;SDS011;5241;47.830;12.972;2022-07-22T00:41:06;22.77;;;20.67;;
10389;SDS011;5241;47.830;12.972;2022-07-22T00:43:48;21.57;;;19.67;;
10389;SDS011;5241;47.830;12.972;2022-07-22T00:46:18;24.57;;;22.37;;
10389;SDS011;5241;47.830;12.972;2022-07-22T00:48:43;22.73;;;20.63;;
10389;SDS011;5241;47.830;12.972;2022-07-22T00:51:09;22.03;;;19.97;;
10389;SDS011;5241;47.830;12.972;2022-07-22T00:53:35;21.33;;;19.43;;
10389;SDS011;5241;47.830;12.972;2022-07-22T00:56:01;21.70;;;19.80;;
10389;SDS011;5241;47.830;12.972;2022-07-22T00:58:28;21.40;;;19.53;;
10389;SDS011;5241;47.830;12.972;2022-07-22T01:00:53;23.60;;;21.30;;
10389;SDS011;5241;47.830;12.972;2022-07-22T01:03:19;23.87;;;21.77;;
10389;SDS011;5241;47.830;12.972;2022-07-22T01:05:45;23.53;;;21.23;;
10389;SDS011;5241;47.830;12.972;2022-07-22T01:08:10;23.03;;;20.73;;
10389;SDS011;5241;47.830;12.972;2022-07-22T01:10:36;24.50;;;22.20;;
10389;SDS011;5241;47.830;12.972;2022-07-22T01:13:01;24.17;;;21.97;;
10389;SDS011;5241;47.830;12.972;2022-07-22T01:15:27;23.97;;;21.60;;
10389;SDS011;5241;47.830;12.972;2022-07-22T01:17:53;22.37;;;20.37;;
10389;SDS011;5241;47.830;12.972;2022-07-22T01:20:18;23.53;;;21.33;;
10389;SDS011;5241;47.830;12.972;2022-07-22T01:22:44;23.03;;;21.03;;
10389;SDS011;5241;47.830;12.972;2022-07-22T01:25:10;23.27;;;21.07;;
10389;SDS011;5241;47.830;12.972;2022-07-22T01:27:36;22.30;;;20.07;;
10389;SDS011;5241;47.830;12.972;2022-07-22T01:30:02;22.30;;;20.00;;
10389;SDS011;5241;47.830;12.972;2022-07-22T01:32:30;21.00;;;18.93;;
10389;SDS011;5241;47.830;12.972;2022-07-22T01:34:55;21.67;;;19.53;;
10389;SDS011;5241;47.830;12.972;2022-07-22T01:37:21;21.37;;;19.17;;
10389;SDS011;5241;47.830;12.972;2022-07-22T01:39:47;19.30;;;17.50;;
10389;SDS011;5241;47.830;12.972;2022-07-22T01:42:13;20.87;;;18.97;;
10389;SDS011;5241;47.830;12.972;2022-07-22T01:44:39;22.33;;;20.30;;
10389;SDS011;5241;47.830;12.972;2022-07-22T01:47:04;21.63;;;19.73;;
10389;SDS011;5241;47.830;12.972;2022-07-22T01:49:30;19.80;;;18.13;;
10389;SDS011;5241;47.830;12.972;2022-07-22T01:51:56;20.40;;;18.60;;
10389;SDS011;5241;47.830;12.972;2022-07-22T01:54:21;20.30;;;18.40;;
10389;SDS011;5241;47.830;12.972;2022-07-22T01:56:47;19.70;;;17.90;;
10389;SDS011;5241;47.830;12.972;2022-07-22T01:59:12;19.00;;;17.10;;
10389;SDS011;5241;47.830;12.972;2022-07-22T02:01:38;20.00;;;18.13;;
10389;SDS011;5241;47.830;12.972;2022-07-22T02:04:03;19.23;;;17.47;;
10389;SDS011;5241;47.830;12.972;2022-07-22T02:06:29;19.33;;;17.53;;
10389;SDS011;5241;47.830;12.972;2022-07-22T02:08:56;18.90;;;17.23;;
10389;SDS011;5241;47.830;12.972;2022-07-22T02:11:21;18.87;;;17.07;;
10389;SDS011;5241;47.830;12.972;2022-07-22T02:13:47;18.40;;;16.60;;
10389;SDS011;5241;47.830;12.972;2022-07-22T02:16:12;19.27;;;17.37;;
10389;SDS011;5241;47.830;12.972;2022-07-22T02:18:38;18.47;;;16.77;;
10389;SDS011;5241;47.830;12.972;2022-07-22T02:21:04;18.47;;;16.70;;
10389;SDS011;5241;47.830;12.972;2022-07-22T02:23:29;17.70;;;16.00;;
10389;SDS011;5241;47.830;12.972;2022-07-22T02:25:55;18.00;;;16.30;;
10389;SDS011;5241;47.830;12.972;2022-07-22T02:28:20;19.03;;;17.13;;
10389;SDS011;5241;47.830;12.972;2022-07-22T02:30:46;19.43;;;17.60;;
10389;SDS011;5241;47.830;12.972;2022-07-22T02:33:12;19.80;;;17.77;;
10389;SDS011;5241;47.830;12.972;2022-07-22T02:35:37;17.80;;;16.20;;
10389;SDS011;5241;47.830;12.972;2022-07-22T02:38:03;17.53;;;15.93;;
10389;SDS011;5241;47.830;12.972;2022-07-22T02:40:29;17.00;;;15.40;;
10389;SDS011;5241;47.830;12.972;2022-07-22T02:42:55;17.73;;;16.13;;
10389;SDS011;5241;47.830;12.972;2022-07-22T02:45:20;19.50;;;17.60;;
10389;SDS011;5241;47.830;12.972;2022-07-22T02:47:47;18.20;;;16.37;;
10389;SDS011;5241;47.830;12.972;2022-07-22T02:50:13;20.07;;;18.17;;
10389;SDS011;5241;47.830;12.972;2022-07-22T02:52:39;19.03;;;17.20;;
10389;SDS011;5241;47.830;12.972;2022-07-22T02:55:05;17.73;;;16.13;;
10389;SDS011;5241;47.830;12.972;2022-07-22T02:57:31;19.07;;;17.27;;
10389;SDS011;5241;47.830;12.972;2022-07-22T02:59:56;19.13;;;17.33;;
10389;SDS011;5241;47.830;12.972;2022-07-22T03:02:22;19.73;;;17.87;;
10389;SDS011;5241;47.830;12.972;2022-07-22T03:04:47;18.77;;;17.03;;
10389;SDS011;5241;47.830;12.972;2022-07-22T03:07:13;18.73;;;16.97;;
10389;SDS011;5241;47.830;12.972;2022-07-22T03:09:38;18.70;;;16.97;;
10389;SDS011;5241;47.830;12.972;2022-07-22T03:12:04;17.30;;;15.60;;
10389;SDS011;5241;47.830;12.972;2022-07-22T03:14:30;17.20;;;15.53;;
10389;SDS011;5241;47.830;12.972;2022-07-22T03:16:55;16.97;;;15.37;;
10389;SDS011;5241;47.830;12.972;2022-07-22T03:19:21;16.40;;;14.80;;
10389;SDS011;5241;47.830;12.972;2022-07-22T03:21:47;16.20;;;14.70;;
10389;SDS011;5241;47.830;12.972;2022-07-22T03:24:12;16.10;;;14.60;;
10389;SDS011;5241;47.830;12.972;2022-07-22T03:26:38;16.37;;;14.87;;
10389;SDS011;5241;47.830;12.972;2022-07-22T03:29:04;16.73;;;15.10;;
10389;SDS011;5241;47.830;12.972;2022-07-22T03:31:29;17.43;;;15.60;;
10389;SDS011;5241;47.830;12.972;2022-07-22T03:33:55;15.53;;;14.13;;
10389;SDS011;5241;47.830;12.972;2022-07-22T03:36:20;15.60;;;14.07;;
10389;SDS011;5241;47.830;12.972;2022-07-22T03:38:46;18.40;;;16.60;;
10389;SDS011;5241;47.830;12.972;2022-07-22T03:41:11;17.57;;;15.97;;
10389;SDS011;5241;47.830;12.972;2022-07-22T03:43:37;18.43;;;16.40;;
10389;SDS011;5241;47.830;12.972;2022-07-22T03:46:02;17.87;;;16.17;;
10389;SDS011;5241;47.830;12.972;2022-07-22T03:48:28;17.70;;;16.10;;
10389;SDS011;5241;47.830;12.972;2022-07-22T03:50:54;18.43;;;16.73;;
10389;SDS011;5241;47.830;12.972;2022-07-22T03:53:19;17.27;;;15.57;;
10389;SDS011;5241;47.830;12.972;2022-07-22T03:55:45;16.83;;;15.27;;
10389;SDS011;5241;47.830;12.972;2022-07-22T03:58:11;16.70;;;15.13;;
10389;SDS011;5241;47.830;12.972;2022-07-22T04:00:37;18.40;;;16.70;;
10389;SDS011;5241;47.830;12.972;2022-07-22T04:03:02;17.60;;;16.00;;
10389;SDS011;5241;47.830;12.972;2022-07-22T04:05:28;17.53;;;15.97;;
10389;SDS011;5241;47.830;12.972;2022-07-22T04:07:53;17.03;;;15.43;;
10389;SDS011;5241;47.830;12.972;2022-07-22T04:10:19;17.00;;;15.33;;
10389;SDS011;5241;47.830;12.972;2022-07-22T04:12:44;18.00;;;16.33;;
10389;SDS011;5241;47.830;12.972;2022-07-22T04:15:10;18.13;;;16.17;;
10389;SDS011;5241;47.830;12.972;2022-07-22T04:17:35;17.67;;;16.07;;
10389;SDS011;5241;47.830;12.972;2022-07-22T04:20:01;17.10;;;15.47;;
10389;SDS011;5241;47.830;12.972;2022-07-22T04:22:27;16.33;;;14.73;;
10389;SDS011;5241;47.830;12.972;2022-07-22T04:24:53;18.00;;;16.10;;
10389;SDS011;5241;47.830;12.972;2022-07-22T04:27:19;16.63;;;15.13;;
10389;SDS011;5241;47.830;12.972;2022-07-22T04:29:44;16.30;;;14.80;;
10389;SDS011;5241;47.830;12.972;2022-07-22T04:32:10;16.27;;;14.77;;
10389;SDS011;5241;47.830;12.972;2022-07-22T04:34:35;16.47;;;14.97;;
10389;SDS011;5241;47.830;12.972;2022-07-22T04:37:01;16.03;;;14.60;;
10389;SDS011;5241;47.830;12.972;2022-07-22T04:39:27;16.63;;;15.13;;
10389;SDS011;5241;47.830;12.972;2022-07-22T04:41:52;17.40;;;15.60;;
10389;SDS011;5241;47.830;12.972;2022-07-22T04:44:18;17.10;;;15.50;;
10389;SDS011;5241;47.830;12.972;2022-07-22T04:46:43;16.37;;;14.90;;
10389;SDS011;5241;47.830;12.972;2022-07-22T04:49:09;15.57;;;14.17;;
10389;SDS011;5241;47.830;12.972;2022-07-22T04:51:34;16.07;;;14.57;;
10389;SDS011;5241;47.830;12.972;2022-07-22T04:54:00;15.03;;;13.73;;
10389;SDS011;5241;47.830;12.972;2022-07-22T04:56:25;14.47;;;13.17;;
10389;SDS011;5241;47.830;12.972;2022-07-22T04:58:51;14.77;;;13.40;;
10389;SDS011;5241;47.830;12.972;2022-07-22T05:01:17;14.47;;;13.20;;
10389;SDS011;5241;47.830;12.972;2022-07-22T05:03:42;15.43;;;13.77;;
10389;SDS011;5241;47.830;12.972;2022-07-22T05:06:08;14.23;;;12.83;;
10389;SDS011;5241;47.830;12.972;2022-07-22T05:08:34;14.23;;;12.83;;
10389;SDS011;5241;47.830;12.972;2022-07-22T05:11:00;13.97;;;12.57;;
10389;SDS011;5241;47.830;12.972;2022-07-22T05:13:26;13.13;;;11.90;;
10389;SDS011;5241;47.830;12.972;2022-07-22T05:15:51;12.80;;;11.60;;
10389;SDS011;5241;47.830;12.972;2022-07-22T05:18:17;13.10;;;11.90;;
10389;SDS011;5241;47.830;12.972;2022-07-22T05:20:42;12.80;;;11.60;;
10389;SDS011;5241;47.830;12.972;2022-07-22T05:23:08;13.10;;;11.90;;
10389;SDS011;5241;47.830;12.972;2022-07-22T05:25:34;12.63;;;11.53;;
10389;SDS011;5241;47.830;12.972;2022-07-22T05:27:59;12.60;;;11.47;;
10389;SDS011;5241;47.830;12.972;2022-07-22T05:30:25;12.53;;;11.43;;
10389;SDS011;5241;47.830;12.972;2022-07-22T05:32:51;12.37;;;11.37;;
10389;SDS011;5241;47.830;12.972;2022-07-22T05:35:17;12.53;;;11.40;;
10389;SDS011;5241;47.830;12.972;2022-07-22T05:37:43;11.10;;;10.17;;
10389;SDS011;5241;47.830;12.972;2022-07-22T05:40:09;10.50;;;9.53;;
10389;SDS011;5241;47.830;12.972;2022-07-22T05:42:34;11.23;;;10.23;;
10389;SDS011;5241;47.830;12.972;2022-07-22T05:45:00;10.77;;;9.63;;
10389;SDS011;5241;47.830;12.972;2022-07-22T05:47:26;14.03;;;10.47;;
10389;SDS011;5241;47.830;12.972;2022-07-22T05:49:51;9.13;;;8.43;;
10389;SDS011;5241;47.830;12.972;2022-07-22T05:52:17;10.47;;;9.47;;
10389;SDS011;5241;47.830;12.972;2022-07-22T05:54:42;9.47;;;8.57;;
10389;SDS011;5241;47.830;12.972;2022-07-22T05:57:08;10.63;;;9.60;;
10389;SDS011;5241;47.830;12.972;2022-07-22T05:59:35;12.13;;;8.97;;
10389;SDS011;5241;47.830;12.972;2022-07-22T06:02:01;9.90;;;8.93;;
10389;SDS011;5241;47.830;12.972;2022-07-22T06:04:26;9.33;;;8.53;;
10389;SDS011;5241;47.830;12.972;2022-07-22T06:06:52;9.47;;;8.67;;
10389;SDS011;5241;47.830;12.972;2022-07-22T06:09:17;9.37;;;8.47;;
10389;SDS011;5241;47.830;12.972;2022-07-22T06:11:43;9.30;;;8.33;;
10389;SDS011;5241;47.830;12.972;2022-07-22T06:14:09;8.87;;;8.10;;
10389;SDS011;5241;47.830;12.972;2022-07-22T06:16:34;9.10;;;8.30;;
10389;SDS011;5241;47.830;12.972;2022-07-22T06:19:00;10.03;;;9.07;;
10389;SDS011;5241;47.830;12.972;2022-07-22T06:21:26;9.07;;;8.37;;
10389;SDS011;5241;47.830;12.972;2022-07-22T06:23:52;8.47;;;7.77;;
10389;SDS011;5241;47.830;12.972;2022-07-22T06:26:17;8.67;;;7.97;;
10389;SDS011;5241;47.830;12.972;2022-07-22T06:28:43;8.93;;;8.13;;
10389;SDS011;5241;47.830;12.972;2022-07-22T06:31:09;8.60;;;7.90;;
10389;SDS011;5241;47.830;12.972;2022-07-22T06:33:35;8.93;;;8.13;;
10389;SDS011;5241;47.830;12.972;2022-07-22T06:36:00;8.50;;;7.80;;
10389;SDS011;5241;47.830;12.972;2022-07-22T06:38:26;9.03;;;8.00;;
10389;SDS011;5241;47.830;12.972;2022-07-22T06:40:52;8.70;;;7.90;;
10389;SDS011;5241;47.830;12.972;2022-07-22T06:43:17;8.63;;;7.93;;
10389;SDS011;5241;47.830;12.972;2022-07-22T06:45:43;8.87;;;8.17;;
10389;SDS011;5241;47.830;12.972;2022-07-22T06:48:08;9.10;;;8.30;;
10389;SDS011;5241;47.830;12.972;2022-07-22T06:50:34;8.20;;;7.50;;
10389;SDS011;5241;47.830;12.972;2022-07-22T06:53:00;7.90;;;7.20;;
10389;SDS011;5241;47.830;12.972;2022-07-22T06:55:25;8.63;;;7.77;;
10389;SDS011;5241;47.830;12.972;2022-07-22T06:57:51;8.40;;;7.70;;
10389;SDS011;5241;47.830;12.972;2022-07-22T07:00:16;8.23;;;7.53;;
10389;SDS011;5241;47.830;12.972;2022-07-22T07:02:43;8.13;;;7.53;;
10389;SDS011;5241;47.830;12.972;2022-07-22T07:05:10;8.73;;;8.10;;
10389;SDS011;5241;47.830;12.972;2022-07-22T07:07:36;7.53;;;7.03;;
10389;SDS011;5241;47.830;12.972;2022-07-22T07:10:02;8.40;;;7.80;;
10389;SDS011;5241;47.830;12.972;2022-07-22T07:12:28;8.63;;;7.83;;
10389;SDS011;5241;47.830;12.972;2022-07-22T07:14:53;8.30;;;7.70;;
10389;SDS011;5241;47.830;12.972;2022-07-22T07:17:19;8.17;;;7.20;;
10389;SDS011;5241;47.830;12.972;2022-07-22T07:19:45;8.38;;;7.13;;
10389;SDS011;5241;47.830;12.972;2022-07-22T07:22:10;8.48;;;7.70;;
10389;SDS011;5241;47.830;12.972;2022-07-22T07:24:36;8.60;;;7.90;;
10389;SDS011;5241;47.830;12.972;2022-07-22T07:27:01;8.10;;;7.30;;
10389;SDS011;5241;47.830;12.972;2022-07-22T07:29:27;7.60;;;6.90;;
10389;SDS011;5241;47.830;12.972;2022-07-22T07:31:52;8.60;;;7.80;;
10389;SDS011;5241;47.830;12.972;2022-07-22T07:34:18;7.60;;;7.00;;
10389;SDS011;5241;47.830;12.972;2022-07-22T07:36:44;7.90;;;7.20;;
10389;SDS011;5241;47.830;12.972;2022-07-22T07:39:09;7.63;;;7.03;;
10389;SDS011;5241;47.830;12.972;2022-07-22T07:41:35;8.20;;;7.60;;
10389;SDS011;5241;47.830;12.972;2022-07-22T07:44:00;7.57;;;6.93;;
10389;SDS011;5241;47.830;12.972;2022-07-22T07:46:26;7.80;;;7.22;;
10389;SDS011;5241;47.830;12.972;2022-07-22T07:48:51;7.57;;;6.97;;
10389;SDS011;5241;47.830;12.972;2022-07-22T07:51:17;8.50;;;7.60;;
10389;SDS011;5241;47.830;12.972;2022-07-22T07:53:43;7.75;;;7.15;;
10389;SDS011;5241;47.830;12.972;2022-07-22T07:56:08;8.35;;;7.63;;
10389;SDS011;5241;47.830;12.972;2022-07-22T07:58:34;8.20;;;7.45;;
10389;SDS011;5241;47.830;12.972;2022-07-22T08:00:59;7.68;;;7.10;;
10389;SDS011;5241;47.830;12.972;2022-07-22T08:03:25;7.57;;;6.97;;
10389;SDS011;5241;47.830;12.972;2022-07-22T08:05:50;7.60;;;6.90;;
10389;SDS011;5241;47.830;12.972;2022-07-22T08:08:16;8.52;;;7.82;;
10389;SDS011;5241;47.830;12.972;2022-07-22T08:10:42;8.38;;;7.78;;
10389;SDS011;5241;47.830;12.972;2022-07-22T08:13:08;7.88;;;7.18;;
10389;SDS011;5241;47.830;12.972;2022-07-22T08:15:33;8.88;;;7.93;;
10389;SDS011;5241;47.830;12.972;2022-07-22T08:17:59;8.60;;;7.80;;
10389;SDS011;5241;47.830;12.972;2022-07-22T08:20:24;8.30;;;7.65;;
10389;SDS011;5241;47.830;12.972;2022-07-22T08:22:51;8.07;;;7.30;;
10389;SDS011;5241;47.830;12.972;2022-07-22T08:25:17;8.43;;;7.75;;
10389;SDS011;5241;47.830;12.972;2022-07-22T08:27:43;8.00;;;7.22;;
10389;SDS011;5241;47.830;12.972;2022-07-22T08:30:09;8.00;;;7.40;;
10389;SDS011;5241;47.830;12.972;2022-07-22T08:32:35;7.65;;;7.03;;
10389;SDS011;5241;47.830;12.972;2022-07-22T08:35:00;7.50;;;6.90;;
10389;SDS011;5241;47.830;12.972;2022-07-22T08:37:26;8.73;;;7.88;;
10389;SDS011;5241;47.830;12.972;2022-07-22T08:39:52;8.98;;;8.07;;
10389;SDS011;5241;47.830;12.972;2022-07-22T08:42:19;7.90;;;7.22;;
10389;SDS011;5241;47.830;12.972;2022-07-22T08:44:46;8.25;;;7.55;;
10389;SDS011;5241;47.830;12.972;2022-07-22T08:47:12;7.85;;;7.15;;
10389;SDS011;5241;47.830;12.972;2022-07-22T08:49:38;8.02;;;7.32;;
10389;SDS011;5241;47.830;12.972;2022-07-22T08:52:04;8.18;;;7.57;;
10389;SDS011;5241;47.830;12.972;2022-07-22T08:54:29;8.93;;;8.23;;
10389;SDS011;5241;47.830;12.972;2022-07-22T08:56:55;8.38;;;7.68;;
10389;SDS011;5241;47.830;12.972;2022-07-22T08:59:20;10.60;;;8.23;;
10389;SDS011;5241;47.830;12.972;2022-07-22T09:04:49;8.70;;;8.00;;
10389;SDS011;5241;47.830;12.972;2022-07-22T09:07:22;10.05;;;9.15;;
10389;SDS011;5241;47.830;12.972;2022-07-22T09:09:49;8.85;;;8.02;;
10389;SDS011;5241;47.830;12.972;2022-07-22T09:12:15;9.18;;;8.27;;
10389;SDS011;5241;47.830;12.972;2022-07-22T09:14:47;8.90;;;7.97;;
10389;SDS011;5241;47.830;12.972;2022-07-22T09:19:49;8.77;;;7.97;;
10389;SDS011;5241;47.830;12.972;2022-07-22T09:22:17;8.93;;;8.23;;
10389;SDS011;5241;47.830;12.972;2022-07-22T09:25:07;9.45;;;8.68;;
10389;SDS011;5241;47.830;12.972;2022-07-22T09:27:56;8.85;;;8.10;;
10389;SDS011;5241;47.830;12.972;2022-07-22T09:30:34;9.38;;;8.50;;
10389;SDS011;5241;47.830;12.972;2022-07-22T09:33:06;9.35;;;8.60;;
10389;SDS011;5241;47.830;12.972;2022-07-22T09:35:32;8.57;;;7.88;;
10389;SDS011;5241;47.830;12.972;2022-07-22T09:37:59;9.52;;;8.80;;
10389;SDS011;5241;47.830;12.972;2022-07-22T09:40:30;9.45;;;8.65;;
10389;SDS011;5241;47.830;12.972;2022-07-22T09:43:00;10.00;;;8.32;;
10389;SDS011;5241;47.830;12.972;2022-07-22T09:45:28;8.45;;;7.85;;
10389;SDS011;5241;47.830;12.972;2022-07-22T09:47:56;9.93;;;9.02;;
10389;SDS011;5241;47.830;12.972;2022-07-22T09:50:26;9.20;;;8.50;;
10389;SDS011;5241;47.830;12.972;2022-07-22T09:52:53;9.80;;;8.90;;
10389;SDS011;5241;47.830;12.972;2022-07-22T09:55:21;10.20;;;9.30;;
10389;SDS011;5241;47.830;12.972;2022-07-22T09:57:49;10.55;;;9.70;;
10389;SDS011;5241;47.830;12.972;2022-07-22T10:00:17;10.77;;;9.57;;
10389;SDS011;5241;47.830;12.972;2022-07-22T10:05:10;10.85;;;9.82;;
10389;SDS011;5241;47.830;12.972;2022-07-22T10:07:37;10.80;;;9.88;;
10389;SDS011;5241;47.830;12.972;2022-07-22T10:10:04;10.38;;;9.48;;
10389;SDS011;5241;47.830;12.972;2022-07-22T10:12:30;11.30;;;10.20;;
10389;SDS011;5241;47.830;12.972;2022-07-22T10:14:57;10.18;;;9.38;;
10389;SDS011;5241;47.830;12.972;2022-07-22T10:17:23;10.13;;;9.30;;
10389;SDS011;5241;47.830;12.972;2022-07-22T10:19:49;10.23;;;9.40;;
10389;SDS011;5241;47.830;12.972;2022-07-22T10:25:15;9.43;;;8.52;;
10389;SDS011;5241;47.830;12.972;2022-07-22T10:30:18;9.48;;;8.77;;
10389;SDS011;5241;47.830;12.972;2022-07-22T10:32:45;9.48;;;8.68;;
10389;SDS011;5241;47.830;12.972;2022-07-22T10:35:27;10.40;;;9.60;;
10389;SDS011;5241;47.830;12.972;2022-07-22T10:37:55;9.35;;;8.45;;
10389;SDS011;5241;47.830;12.972;2022-07-22T10:40:23;9.07;;;8.27;;
10389;SDS011;5241;47.830;12.972;2022-07-22T10:45:28;8.82;;;8.02;;
10389;SDS011;5241;47.830;12.972;2022-07-22T10:48:16;9.13;;;8.38;;
10389;SDS011;5241;47.830;12.972;2022-07-22T10:50:42;9.60;;;8.70;;
10389;SDS011;5241;47.830;12.972;2022-07-22T10:53:19;9.43;;;8.65;;
10389;SDS011;5241;47.830;12.972;2022-07-22T11:01:05;9.23;;;8.43;;
10389;SDS011;5241;47.830;12.972;2022-07-22T11:03:32;9.10;;;8.32;;
10389;SDS011;5241;47.830;12.972;2022-07-22T11:08:44;8.23;;;7.55;;
10389;SDS011;5241;47.830;12.972;2022-07-22T11:11:10;8.30;;;7.50;;
10389;SDS011;5241;47.830;12.972;2022-07-22T11:13:37;9.43;;;8.70;;
10389;SDS011;5241;47.830;12.972;2022-07-22T11:16:18;9.43;;;8.13;;
10389;SDS011;5241;47.830;12.972;2022-07-22T11:18:52;8.80;;;8.00;;
10389;SDS011;5241;47.830;12.972;2022-07-22T11:21:20;8.95;;;7.90;;
10389;SDS011;5241;47.830;12.972;2022-07-22T11:23:49;9.30;;;8.50;;
10389;SDS011;5241;47.830;12.972;2022-07-22T11:26:17;8.90;;;8.20;;
10389;SDS011;5241;47.830;12.972;2022-07-22T11:28:47;8.95;;;8.15;;
10389;SDS011;5241;47.830;12.972;2022-07-22T11:31:16;8.80;;;7.90;;
10389;SDS011;5241;47.830;12.972;2022-07-22T11:33:44;8.57;;;7.90;;
10389;SDS011;5241;47.830;12.972;2022-07-22T11:36:10;9.70;;;8.25;;
10389;SDS011;5241;47.830;12.972;2022-07-22T11:38:44;8.00;;;7.40;;
10389;SDS011;5241;47.830;12.972;2022-07-22T11:41:15;9.15;;;8.40;;
10389;SDS011;5241;47.830;12.972;2022-07-22T11:43:46;8.02;;;7.38;;
10389;SDS011;5241;47.830;12.972;2022-07-22T11:46:14;8.60;;;7.90;;
10389;SDS011;5241;47.830;12.972;2022-07-22T11:48:41;9.20;;;8.40;;
10389;SDS011;5241;47.830;12.972;2022-07-22T11:51:07;8.88;;;8.07;;
10389;SDS011;5241;47.830;12.972;2022-07-22T11:53:40;8.98;;;8.30;;
10389;SDS011;5241;47.830;12.972;2022-07-22T11:56:07;8.68;;;7.97;;
10389;SDS011;5241;47.830;12.972;2022-07-22T11:58:43;8.38;;;7.65;;
10389;SDS011;5241;47.830;12.972;2022-07-22T12:01:15;8.82;;;8.00;;
10389;SDS011;5241;47.830;12.972;2022-07-22T12:03:47;8.70;;;7.28;;
10389;SDS011;5241;47.830;12.972;2022-07-22T12:06:14;8.70;;;7.85;;
10389;SDS011;5241;47.830;12.972;2022-07-22T12:08:42;9.45;;;8.65;;
10389;SDS011;5241;47.830;12.972;2022-07-22T12:11:10;8.93;;;8.23;;
10389;SDS011;5241;47.830;12.972;2022-07-22T12:13:42;8.80;;;8.15;;
10389;SDS011;5241;47.830;12.972;2022-07-22T12:16:25;9.45;;;8.60;;
10389;SDS011;5241;47.830;12.972;2022-07-22T12:19:14;8.20;;;7.50;;
10389;SDS011;5241;47.830;12.972;2022-07-22T12:21:55;9.00;;;8.23;;
10389;SDS011;5241;47.830;12.972;2022-07-22T12:24:26;8.50;;;7.80;;
10389;SDS011;5241;47.830;12.972;2022-07-22T12:26:56;9.65;;;8.95;;
10389;SDS011;5241;47.830;12.972;2022-07-22T12:32:01;8.05;;;7.45;;
10389;SDS011;5241;47.830;12.972;2022-07-22T12:34:30;8.70;;;8.00;;
10389;SDS011;5241;47.830;12.972;2022-07-22T12:36:59;9.48;;;8.68;;
10389;SDS011;5241;47.830;12.972;2022-07-22T12:39:27;8.77;;;7.97;;
10389;SDS011;5241;47.830;12.972;2022-07-22T12:41:53;7.90;;;7.18;;
10389;SDS011;5241;47.830;12.972;2022-07-22T12:44:24;8.20;;;7.50;;
10389;SDS011;5241;47.830;12.972;2022-07-22T12:46:53;7.80;;;7.20;;
10389;SDS011;5241;47.830;12.972;2022-07-22T12:49:21;9.15;;;8.25;;
10389;SDS011;5241;47.830;12.972;2022-07-22T12:52:04;9.13;;;8.32;;
10389;SDS011;5241;47.830;12.972;2022-07-22T12:54:30;8.85;;;8.15;;
10389;SDS011;5241;47.830;12.972;2022-07-22T12:56:56;9.57;;;8.82;;
10389;SDS011;5241;47.830;12.972;2022-07-22T12:59:21;9.23;;;8.40;;
10389;SDS011;5241;47.830;12.972;2022-07-22T13:01:47;10.00;;;8.73;;
10389;SDS011;5241;47.830;12.972;2022-07-22T13:04:13;8.73;;;8.02;;
10389;SDS011;5241;47.830;12.972;2022-07-22T13:06:39;9.95;;;9.07;;
10389;SDS011;5241;47.830;12.972;2022-07-22T13:09:05;9.05;;;8.35;;
10389;SDS011;5241;47.830;12.972;2022-07-22T13:11:31;9.27;;;8.43;;
10389;SDS011;5241;47.830;12.972;2022-07-22T13:13:56;8.70;;;8.10;;
10389;SDS011;5241;47.830;12.972;2022-07-22T13:16:22;9.60;;;8.82;;
10389;SDS011;5241;47.830;12.972;2022-07-22T13:18:49;8.93;;;8.32;;
10389;SDS011;5241;47.830;12.972;2022-07-22T13:21:16;8.65;;;7.85;;
10389;SDS011;5241;47.830;12.972;2022-07-22T13:23:41;9.60;;;8.60;;
10389;SDS011;5241;47.830;12.972;2022-07-22T13:26:07;9.43;;;8.73;;
10389;SDS011;5241;47.830;12.972;2022-07-22T13:28:32;9.48;;;8.65;;
10389;SDS011;5241;47.830;12.972;2022-07-22T13:30:58;10.52;;;9.73;;
10389;SDS011;5241;47.830;12.972;2022-07-22T13:33:24;9.63;;;8.93;;
10389;SDS011;5241;47.830;12.972;2022-07-22T13:35:49;9.48;;;8.77;;
10389;SDS011;5241;47.830;12.972;2022-07-22T13:38:15;8.85;;;8.25;;
10389;SDS011;5241;47.830;12.972;2022-07-22T13:40:42;9.45;;;8.73;;
10389;SDS011;5241;47.830;12.972;2022-07-22T13:43:15;9.27;;;8.48;;
10389;SDS011;5241;47.830;12.972;2022-07-22T13:45:42;9.88;;;9.07;;
10389;SDS011;5241;47.830;12.972;2022-07-22T13:48:07;9.43;;;8.73;;
10389;SDS011;5241;47.830;12.972;2022-07-22T13:50:33;10.10;;;9.30;;
10389;SDS011;5241;47.830;12.972;2022-07-22T13:52:58;9.02;;;8.40;;
10389;SDS011;5241;47.830;12.972;2022-07-22T13:55:24;9.57;;;8.73;;
10389;SDS011;5241;47.830;12.972;2022-07-22T13:57:50;9.63;;;8.82;;
10389;SDS011;5241;47.830;12.972;2022-07-22T14:00:15;9.82;;;9.02;;
10389;SDS011;5241;47.830;12.972;2022-07-22T14:02:42;9.18;;;8.48;;
10389;SDS011;5241;47.830;12.972;2022-07-22T14:05:09;10.45;;;9.55;;
10389;SDS011;5241;47.830;12.972;2022-07-22T14:07:36;10.35;;;9.48;;
10389;SDS011;5241;47.830;12.972;2022-07-22T14:10:01;9.35;;;8.65;;
10389;SDS011;5241;47.830;12.972;2022-07-22T14:12:27;9.77;;;9.07;;
10389;SDS011;5241;47.830;12.972;2022-07-22T14:14:53;9.48;;;8.77;;
10389;SDS011;5241;47.830;12.972;2022-07-22T14:17:19;10.57;;;9.70;;
10389;SDS011;5241;47.830;12.972;2022-07-22T14:19:44;10.55;;;9.85;;
10389;SDS011;5241;47.830;12.972;2022-07-22T14:22:10;10.15;;;9.25;;
10389;SDS011;5241;47.830;12.972;2022-07-22T14:24:35;10.40;;;9.60;;
10389;SDS011;5241;47.830;12.972;2022-07-22T14:27:01;9.55;;;8.85;;
10389;SDS011;5241;47.830;12.972;2022-07-22T14:29:27;9.63;;;8.90;;
10389;SDS011;5241;47.830;12.972;2022-07-22T14:31:52;10.27;;;9.57;;
10389;SDS011;5241;47.830;12.972;2022-07-22T14:34:18;10.55;;;9.68;;
10389;SDS011;5241;47.830;12.972;2022-07-22T14:36:43;9.82;;;9.13;;
10389;SDS011;5241;47.830;12.972;2022-07-22T14:39:09;9.90;;;9.20;;
10389;SDS011;5241;47.830;12.972;2022-07-22T14:41:35;10.82;;;10.02;;
10389;SDS011;5241;47.830;12.972;2022-07-22T14:44:00;9.85;;;9.15;;
10389;SDS011;5241;47.830;12.972;2022-07-22T14:46:26;10.73;;;10.02;;
10389;SDS011;5241;47.830;12.972;2022-07-22T14:48:52;9.90;;;9.00;;
10389;SDS011;5241;47.830;12.972;2022-07-22T14:51:19;10.70;;;9.80;;
10389;SDS011;5241;47.830;12.972;2022-07-22T14:53:46;10.65;;;9.57;;
10389;SDS011;5241;47.830;12.972;2022-07-22T14:56:11;10.55;;;9.75;;
10389;SDS011;5241;47.830;12.972;2022-07-22T14:58:37;10.75;;;9.95;;
10389;SDS011;5241;47.830;12.972;2022-07-22T15:01:02;11.63;;;10.43;;